Malakai Sauturaga

Scout - Nasinu
3 Dez 2028
Sonntag
Verarbeitung

Persönlichkeit

Anpassungsfähigkeit (20) Ehrgeiz (15) Kontroverse (11) Loyalität (11) Druck (3) Professionalität (18) Fairness (15) Temperament (18)

Profil

Trainerstil Demokratisch
Lizenz Kontinentale A
Entschlossenheit 3
Menschenführung 5
Motivation 4
Disziplin 2
Arbeitszufriedenheit
100%
Ermüdung
0%
Rolle Scout
Gehalt 23.0K p/W
Vertrag 14.03.2029

Leistung

Verhalten Gut
Trainingseffektivität
25%
Spielerentwicklung
10%
Verletzungsprävention
20%
Taktische Umsetzung
5%

Letzte Ereignisse

Spieler begutachtet jetzt
Spieler begutachtet jetzt
Spieler begutachtet jetzt
Spieler begutachtet jetzt
Spieler begutachtet jetzt
Spieler begutachtet jetzt
Spieler begutachtet jetzt
Spieler begutachtet jetzt

Aktuell beobachtet

343
Spieler Verein Status Fähigkeit Vertrauen Beobachtet Zuletzt beobachtet Letzte Stimme
Lebogang Mswane Hapoel Beer Sheva Aktiv 71 / 93 40% 5 02.12.2028 -
Marco Garbett Hawke's Bay United Aktiv 62 / 68 40% 6 02.12.2028 -
Hanif Sjahbandi Persib Aktiv 86 / 83 40% 8 02.12.2028 -
Davel Damen Akzhaiyk Aktiv 68 / 69 40% 5 02.12.2028 -
Santino Escolme Auckland City Aktiv 66 / 74 40% 2 02.12.2028 -
Owen Kirwan Waitakere United Aktiv 75 / 79 40% 2 02.12.2028 -
Michael Barbarouses Hawke's Bay United Aktiv 70 / 82 40% 3 02.12.2028 -
Bernard Bukari Macarthur FC Aktiv 67 / 62 40% 1 02.12.2028 -
Tim Nelson WaiBOP United Aktiv 79 / 90 40% 2 01.12.2028 -
Satrio Azhar Aktobe Aktiv 77 / 81 40% 1 01.12.2028 -
Edo Febriansyah Dewa United Aktiv 68 / 95 40% 10 30.11.2028 -
Vlatko Stojanovski Mashal Aktiv 99 / 82 40% 6 30.11.2028 -
Diyorbek Haliyev Shortan Aktiv 66 / 88 40% 4 30.11.2028 -
William Walker Hawke's Bay United Aktiv 91 / 101 40% 2 30.11.2028 -
Sardor Tukhtasinov Obod Aktiv 91 / 73 40% 2 29.11.2028 -
Reuben Juma Dewa United Aktiv 78 / 51 40% 1 29.11.2028 -
Dias Orynbasar Atyrau Aktiv 86 / 79 40% 8 28.11.2028 -
McKeal Abdullah Zhetysu Aktiv 77 / 70 40% 7 28.11.2028 -
Deklan Van Hattum Waitakere United Aktiv 71 / 94 40% 4 28.11.2028 -
Dejan Račić Bhayangkara Presisi Aktiv 104 / 106 40% 17 28.11.2028 -
Tommy Wood Hawke's Bay United Aktiv 86 / 85 40% 4 28.11.2028 -
James Stamatelopoulos WaiBOP United Aktiv 99 / 89 40% 4 28.11.2028 -
Junior Mpanza Arema Aktiv 82 / 62 40% 6 27.11.2028 -
Neemish Prasad Rewa Aktiv 58 / 58 40% 4 27.11.2028 -
Dhayfallah Kadri Persib Aktiv 85 / 85 40% 1 27.11.2028 -
Yamato Naito Ventforet Kofu Aktiv 84 / 80 40% 27 26.11.2028 -
Wahyudi Hamisi Persijap Aktiv 68 / 78 40% 26 26.11.2028 -
Robi Darwis PSBS Biak Aktiv 77 / 64 40% 2 26.11.2028 -
Dylan Tevreden Gamba Osaka Aktiv 92 / 110 40% 1 26.11.2028 -
Owen Lockyer Waitakere United Aktiv 80 / 78 40% 1 26.11.2028 -
Make Aldo Maulidino PSIM Aktiv 69 / 77 40% 22 25.11.2028 -
Sairusi Nalaubu Lautoka Aktiv 76 / 83 40% 35 25.11.2028 -
Umid Urunov Obod Aktiv 72 / 71 40% 5 25.11.2028 -
Saian Mūqanov Okzhetpes Aktiv 71 / 93 40% 12 25.11.2028 -
Rico Browne Jubilo Iwata Aktiv 99 / 116 40% 7 25.11.2028 -
Amir Hasanov Obod Aktiv 49 / 58 40% 2 25.11.2028 -
Richard Monday Ubong Vissel Kobe Aktiv 84 / 103 40% 1 25.11.2028 -
Jake Boxall Southern United Aktiv 47 / 66 40% 1 25.11.2028 -
Nur Diansyah Persik Aktiv 91 / 73 40% 5 24.11.2028 -
Isaac Frimpong Sanfrecce Hiroshima Aktiv 72 / 67 40% 2 24.11.2028 -
James Durrington Brisbane Roar Aktiv 102 / 102 40% 2 24.11.2028 -
Fidel Origa Ba Aktiv 104 / 94 40% 8 24.11.2028 -
Awan Setho Bhayangkara Presisi Aktiv 68 / 99 40% 2 24.11.2028 -
Yoga Adiatama Persik Aktiv 86 / 77 40% 6 23.11.2028 -
Khaled Tawhid Bnei Yehuda Aktiv 87 / 96 40% 1 23.11.2028 -
Simione Nabenu Suva Aktiv 72 / 75 40% 15 22.11.2028 -
Yacob Sayuri Maluku Utara United Aktiv 92 / 78 40% 23 22.11.2028 -
Bobomurod Bozorov Qizilqum Aktiv 76 / 66 40% 11 22.11.2028 -
Mikheil Basheleishvili Bukhara Aktiv 92 / 96 40% 2 22.11.2028 -
Al-Zahri Atyrau Aktiv 62 / 63 40% 16 21.11.2028 -
Israel Monga Adelaide United Aktiv 97 / 91 40% 14 21.11.2028 -
Abdulganeey Teslim Maluku Utara United Aktiv 63 / 55 40% 6 21.11.2028 -
Seth Clark Sydney FC Aktiv 92 / 96 40% 8 20.11.2028 -
Takumi Yasuno Vegalta Sendai Aktiv 59 / 89 40% 8 20.11.2028 -
Abdurahmon Komilov Andijon Aktiv 93 / 86 40% 8 20.11.2028 -
Muhammad Iqbal PSIM Aktiv 68 / 62 40% 3 20.11.2028 -
Ori Azulay Hapoel Raanana Aktiv 60 / 57 40% 2 20.11.2028 -
Barrie Limoki Nadroga Aktiv 72 / 63 40% 16 19.11.2028 -
G'anisher Qodirov Shortan Aktiv 82 / 102 40% 24 19.11.2028 -
Raheem Nugraha Ba Aktiv 75 / 66 40% 9 19.11.2028 -
Bahodir Halilov Nasaf Aktiv 86 / 70 40% 8 19.11.2028 -
Reuben Otieno Neftchi Aktiv 89 / 81 40% 1 19.11.2028 -
Cyrus Margono Persija Aktiv 72 / 88 40% 1 19.11.2028 -
Saidu Lawan Dewa United Aktiv 81 / 59 40% 1 18.11.2028 -
Noah Kirwan Hawke's Bay United Aktiv 73 / 83 40% 1 18.11.2028 -
Adam Bell Auckland City Aktiv 84 / 90 40% 7 17.11.2028 -
Septian Bagaskara PSM Aktiv 86 / 69 40% 10 17.11.2028 -
Fabby Clark Metallurg Aktiv 102 / 92 40% 9 17.11.2028 -
Muhammed Kabiru Ordabasy Aktiv 86 / 106 40% 1 17.11.2028 -
Humoyunshoh Sayyotov Qizilqum Aktiv 99 / 101 40% 1 17.11.2028 -
Winston Sutton Southern United Aktiv 91 / 83 40% 1 17.11.2028 -
José Meza Bhayangkara Presisi Aktiv 72 / 81 40% 8 16.11.2028 -
Kendry Domingo Canterbury United Aktiv 68 / 88 40% 4 16.11.2028 -
Riley Foxe Perth Glory Aktiv 104 / 95 40% 15 15.11.2028 -
Jens Raven Bali United Aktiv 72 / 72 40% 10 15.11.2028 -
Iowane Matanisiga Labasa Aktiv 62 / 67 40% 10 15.11.2028 -
Fortune Omoto Semen Padang Aktiv 66 / 62 40% 10 15.11.2028 -
Tuiba Batiratu Nadi Aktiv 59 / 46 40% 5 12.11.2028 -
Tomás Leuzzi Vegalta Sendai Aktiv 89 / 109 40% 2 12.11.2028 -
Zakhar Porokh Okzhetpes Aktiv 85 / 99 40% 2 11.11.2028 -
Wahyu Agong Semen Padang Aktiv 81 / 78 40% 4 10.11.2028 -
James Bell Canterbury United Aktiv 89 / 85 40% 2 10.11.2028 -
Fareed Sadat Bhayangkara Presisi Aktiv 91 / 93 40% 16 08.11.2028 -
Riyatno Abiyoso PSIM Aktiv 69 / 85 40% 4 07.11.2028 -
Ricki Ariansyah Semen Padang Aktiv 77 / 84 40% 3 07.11.2028 -
Islambek Kuat Akzhaiyk Aktiv 64 / 76 40% 6 06.11.2028 -
Anthony Didulica Perth Glory Aktiv 101 / 101 40% 11 06.11.2028 -
Abdulmajid Usman Arema Aktiv 64 / 84 40% 3 06.11.2028 -
James Reid WaiBOP United Aktiv 84 / 87 40% 2 05.11.2028 -
Aporosa Yada Labasa Aktiv 75 / 69 40% 20 04.11.2028 -
Fredyan Wahyu Maluku Utara United Aktiv 85 / 60 40% 4 04.11.2028 -
Ntisikelelo Mbele Ba Aktiv 72 / 82 40% 2 03.11.2028 -
Yusuf Meilana Persik Aktiv 84 / 78 40% 4 03.11.2028 -
Nabil Begg Ba Aktiv 66 / 54 40% 15 02.11.2028 -
Joe Van Hattum Hawke's Bay United Aktiv 95 / 94 40% 1 02.11.2028 -
Gavriil Chizhov Akzhaiyk Aktiv 63 / 72 40% 11 01.11.2028 -
Fabien Adikiny Okzhetpes Aktiv 70 / 93 40% 5 01.11.2028 -
Martín Hiriart Maccabi Petach Tikva Aktiv 59 / 79 40% 1 01.11.2028 -
James Lockyer Hawke's Bay United Aktiv 77 / 85 40% 6 31.10.2028 -
Viktor Ziabko Okzhetpes Aktiv 67 / 59 40% 5 31.10.2028 -
Amadou Diallo Vegalta Sendai Aktiv 86 / 78 40% 1 29.10.2028 -
Bekmurodjon Abduraimjonov Zhetysu Aktiv 70 / 60 40% 2 28.10.2028 -
Quvonchbek Abrayev Lokomotiv Aktiv 105 / 101 40% 3 27.10.2028 -
Og'abek Asadov Shortan Aktiv 55 / 74 40% 1 27.10.2028 -
Cristian Lobo Kashiwa Reysol Aktiv 107 / 114 40% 1 27.10.2028 -
Dimas Drajad Persib Aktiv 78 / 74 40% 8 25.10.2028 -
Chinanu Victor Rewa Aktiv 80 / 85 40% 20 23.10.2028 -
Anvar Murodov Metallurg Aktiv 88 / 94 40% 5 23.10.2028 -
Ädilkhan Taňzharyqov Tobol Aktiv 88 / 102 40% 7 21.10.2028 -
Sūltan Shymyrkhan Shakhter Aktiv 66 / 91 40% 8 20.10.2028 -
Jack Wale Navua Aktiv 67 / 57 40% 3 20.10.2028 -
Oliver Evans Perth Glory Aktiv 91 / 105 40% 5 20.10.2028 -
Noah Kirwan Hawke's Bay United Aktiv 71 / 70 40% 10 19.10.2028 -
Shivam Naidu Lautoka Aktiv 75 / 62 40% 6 19.10.2028 -
Kieran Craig Central Coast Mariners Aktiv 77 / 86 40% 4 19.10.2028 -
Farruhjon Qodirov Bukhara Aktiv 78 / 82 40% 10 18.10.2028 -
Isac Galván Omiya Ardija Aktiv 64 / 61 40% 1 16.10.2028 -
Alex Sutton Hawke's Bay United Aktiv 108 / 89 40% 1 15.10.2028 -
Theo Numberi Dewa United Aktiv 73 / 54 40% 13 13.10.2028 -
Kauã Rodrigo Macarthur FC Aktiv 88 / 92 40% 5 13.10.2028 -
Austin Ayoubi Central Coast Mariners Aktiv 114 / 101 40% 1 13.10.2028 -
Raka Cahyana PSIM Aktiv 52 / 74 40% 15 12.10.2028 -
Noah Wood Canterbury United Aktiv 72 / 86 40% 8 12.10.2028 -
Will McKay Macarthur FC Aktiv 81 / 85 40% 3 12.10.2028 -
Waleed Ayyash Metallurg Aktiv 97 / 91 40% 2 12.10.2028 -
Sardorbek Hoshimov Sogdiana Aktiv 99 / 82 40% 2 12.10.2028 -
Siyabonga Mkhize Avispa Fukuoka Aktiv 77 / 91 40% 2 11.10.2028 -
Yuda Editya Madura United Aktiv 83 / 91 40% 11 10.10.2028 -
Jai Just Hawke's Bay United Aktiv 98 / 94 40% 1 09.10.2028 -
Michael Sutton Southern United Aktiv 75 / 85 40% 3 08.10.2028 -
Stefan McCowatt Hawke's Bay United Aktiv 74 / 90 40% 8 07.10.2028 -
Leon Kofana Rewa Aktiv 61 / 76 40% 15 05.10.2028 -
Rizky Dwi Febrianto Bali United Aktiv 89 / 59 40% 3 05.10.2028 -
Muhannad Barah Aktobe Aktiv 71 / 86 40% 1 04.10.2028 -
Ravikash Krishna Tailevu Naitasiri Aktiv 66 / 66 40% 3 02.10.2028 -
Matlahatsi Mampane Lautoka Aktiv 73 / 103 40% 15 30.09.2028 -
Ryan Nelson WaiBOP United Aktiv 91 / 101 40% 2 30.09.2028 -
Merei Zhambyl Taraz Aktiv 84 / 97 40% 1 30.09.2028 -
Dane Barbarouses Southern United Aktiv 89 / 81 40% 6 29.09.2028 -
Ben Mewett Western Sydney Wanderers Aktiv 95 / 93 40% 7 28.09.2028 -
Steward Toata Nadroga Aktiv 52 / 53 40% 3 26.09.2028 -
Matt Garbett Southern United Aktiv 76 / 91 40% 1 26.09.2028 -
Haruna Attah AGMK Aktiv 101 / 74 40% 6 25.09.2028 -
Kosta Bell Southern United Aktiv 64 / 84 40% 10 24.09.2028 -
Tim Lewis Canterbury United Aktiv 75 / 85 40% 6 22.09.2028 -
Daniel Atlan Maccabi Netanya Aktiv 88 / 95 40% 5 22.09.2028 -
Bill Garbett Southern United Aktiv 56 / 63 40% 1 21.09.2028 -
Ahmad Alchoir Persita Aktiv 65 / 66 40% 1 21.09.2028 -
Thabelo Tshikweta Auckland FC Aktiv 70 / 86 40% 1 19.09.2028 -
Tom Rostovsky Hapoel Raanana Aktiv 77 / 91 40% 3 17.09.2028 -
Yoqubjon Qodirov WaiBOP United Aktiv 67 / 69 40% 3 17.09.2028 -
Marco Nelson Canterbury United Aktiv 70 / 77 40% 2 16.09.2028 -
Davis Morwaswi Semen Padang Aktiv 85 / 98 40% 3 14.09.2028 -
Marko Živanović Akzhaiyk Aktiv 59 / 71 40% 4 12.09.2028 -
Kayne Razmovski Rewa Aktiv 67 / 75 40% 16 08.09.2028 -
Gideon Asante Yeboah AGMK Aktiv 70 / 90 40% 1 08.09.2028 -
Elvis Osok AGMK Aktiv 62 / 84 40% 1 08.09.2028 -
Ben van Dorssen Ba Aktiv 59 / 55 40% 1 08.09.2028 -
Sho Sannomiya Taraz Aktiv 106 / 82 40% 1 07.09.2028 -
Dendy Sulistyawan Bhayangkara Presisi Aktiv 81 / 71 40% 7 06.09.2028 -
Rafael Andrade Rewa Aktiv 71 / 84 40% 14 05.09.2028 -
Sergio Villalpando Kawasaki Frontale Aktiv 80 / 78 40% 1 03.09.2028 -
Cameron Kirwan Waitakere United Aktiv 80 / 77 40% 5 02.09.2028 -
Samuel Navoce Labasa Aktiv 46 / 58 40% 2 02.09.2028 -
Maxim Orazov Akzhaiyk Aktiv 70 / 53 40% 2 30.08.2028 -
Ariel Gueta Bnei Yehuda Aktiv 61 / 85 40% 1 30.08.2028 -
Ilhamsyah Madura United Aktiv 73 / 88 40% 3 29.08.2028 -
Isaac Lee Hapoel Raanana Aktiv 88 / 87 40% 3 26.08.2028 -
Septian David Maluku Utara United Aktiv 93 / 64 40% 4 24.08.2028 -
Bagas Adi Nugroho Bali United Aktiv 87 / 80 40% 1 23.08.2028 -
Muhammad Toha Persijap Aktiv 67 / 81 40% 1 23.08.2028 -
Idris Bashir Sydney FC Aktiv 74 / 84 40% 1 22.08.2028 -
Reva Adi Utama PSIM Aktiv 59 / 79 40% 5 21.08.2028 -
Teguh Trisnanda Borneo Aktiv 66 / 73 40% 4 21.08.2028 -
Success Makanjuola Adelaide United Aktiv 102 / 97 40% 9 20.08.2028 -
Samuel Gwijangge PSBS Biak Aktiv 48 / 58 40% 2 15.08.2028 -
Teuku Ichsan Bhayangkara Presisi Aktiv 66 / 81 40% 1 13.08.2028 -
Abdul Rahman PSM Aktiv 76 / 50 40% 13 12.08.2028 -
Akeimi Ralulu Labasa Aktiv 52 / 56 40% 5 10.08.2028 -
Patrick Joseph Ba Aktiv 53 / 81 40% 8 07.08.2028 -
Abidemi Alli Melbourne City Aktiv 86 / 97 40% 3 07.08.2028 -
Ahmat Adoum PSIM Aktiv 66 / 83 40% 1 06.08.2028 -
Isiaq Kamaideen Bnei Sakhnin Aktiv 83 / 94 40% 1 05.08.2028 -
Rikiya Uehara Jubilo Iwata Aktiv 123 / 116 40% 2 04.08.2028 -
Isroiljon Tursunboyev Metallurg Aktiv 59 / 86 40% 5 02.08.2028 -
Deri Corfe PSIM Aktiv 75 / 76 40% 1 02.08.2028 -
Diesel Herrington Central Coast Mariners Aktiv 102 / 107 40% 2 01.08.2028 -
Raymond Matlamela Rewa Aktiv 70 / 88 40% 8 31.07.2028 -
Nūraidar Äskerbek Taraz Aktiv 68 / 61 40% 3 26.07.2028 -
Vishant Reddy Nadi Aktiv 63 / 45 40% 1 26.07.2028 -
Enock Asubonteng Western Sydney Wanderers Aktiv 95 / 86 40% 1 23.07.2028 -
Rosyad Setiawan Semen Padang Aktiv 61 / 77 40% 7 22.07.2028 -
Dennis Munyovi Bunyodkor Aktiv 90 / 88 40% 2 21.07.2028 -
Diego Latorre Sagan Tosu Aktiv 78 / 105 40% 2 20.07.2028 -
Jonathan Mairiga Bunyodkor Aktiv 68 / 92 40% 2 19.07.2028 -
Jayden Smith Wellington Phoenix Aktiv 91 / 107 40% 7 18.07.2028 -
Joel Bertolissio Newcastle Jets Aktiv 85 / 92 40% 12 17.07.2028 -
Diogo Brito Persijap Aktiv 68 / 91 40% 3 16.07.2028 -
Dyllan Bustamante Omiya Ardija Aktiv 64 / 77 40% 3 09.07.2028 -
Marco Garbett Southern United Aktiv 63 / 70 40% 1 08.07.2028 -
Talgat Nurgaliev Akzhaiyk Aktiv 93 / 74 40% 3 04.07.2028 -
Christian Gray Auckland City Aktiv 102 / 95 40% 4 03.07.2028 -
Josua Raqamu Suva Aktiv 61 / 50 51% 1 03.07.2028 -
Arian Pardo Adelaide United Aktiv 99 / 107 40% 2 02.07.2028 -
Sikeli Tuiloma Tailevu Naitasiri Aktiv 49 / 43 40% 1 01.07.2028 -
Sani Rizki PSBS Biak Aktiv 65 / 93 40% 2 28.06.2028 -
Noah Lockyer Waitakere United Aktiv 56 / 61 40% 1 27.06.2028 -
Noah McCann Central Coast Mariners Aktiv 87 / 77 40% 8 26.06.2028 -
Khaled Kamal Ba Aktiv 76 / 90 40% 19 21.06.2028 -
Felipe Fuentes Bnei Yehuda Aktiv 89 / 75 40% 3 21.06.2028 -
Siyabonga Hlengwa Navua Aktiv 77 / 69 40% 12 20.06.2028 -
Josaia Sela Lautoka Aktiv 55 / 46 40% 3 13.06.2028 -
Oliver Middleton Auckland FC Aktiv 98 / 86 40% 1 11.06.2028 -
Abongwe Newman Lautoka Aktiv 73 / 71 40% 4 08.06.2028 -
Mohammad Khanafi PSM Aktiv 58 / 60 40% 3 04.06.2028 -
Samandar Ochilov Mashal Aktiv 76 / 66 40% 1 02.06.2028 -
Aji Kusuma Madura United Aktiv 82 / 95 40% 4 31.05.2028 -
Paris Domfeh Auckland City Aktiv 78 / 79 40% 7 30.05.2028 -
Ben van Dorssen Ba Verloren 66 / 52 40% 2 30.05.2028 -
Miraziz Mahamadaliyev Andijon Aktiv 63 / 81 40% 8 29.05.2028 -
O'ktamjon Abdumalikov Kokand 1912 Aktiv 73 / 68 40% 8 28.05.2028 -
Liam Bonetig Melbourne City Aktiv 88 / 78 40% 1 28.05.2028 -
Joshua Inserra Melbourne Victory Aktiv 95 / 99 40% 10 23.05.2028 -
Khayalethu Mzimela Persebaya Aktiv 81 / 67 40% 1 21.05.2028 -
Matías Nicosia Central Coast Mariners Aktiv 87 / 84 40% 5 19.05.2028 -
Ryan Kurnia Bhayangkara Presisi Aktiv 66 / 65 40% 15 16.05.2028 -
Luke Vickery Macarthur FC Aktiv 81 / 107 40% 25 12.05.2028 -
Alex Nelson Navbahor Aktiv 61 / 58 40% 2 10.05.2028 -
Yehonatan Segev Maccabi Petach Tikva Abgelehnt 85 / 87 40% 1 09.05.2028 -
Wasi Ngala Zhetysu Aktiv 53 / 79 40% 2 07.05.2028 -
Koko Araya Persebaya Aktiv 78 / 89 40% 1 07.05.2028 -
Ellis Spikner Hapoel Acre Aktiv 68 / 71 40% 6 02.05.2028 -
Marcel Vergara Sydney FC Aktiv 80 / 83 40% 1 30.04.2028 -
Favio Funes Western Sydney Wanderers Aktiv 91 / 88 40% 2 29.04.2028 -
Tzuri Zeituni Maccabi Netanya Aktiv 72 / 89 40% 3 29.04.2028 -
Tomer Darzi Beitar Jerusalem Aktiv 51 / 57 40% 3 29.04.2028 -
Feyzo Kasumović Adelaide United Aktiv 89 / 102 40% 2 29.04.2028 -
Víctor Barona Melbourne City Aktiv 90 / 87 40% 3 27.04.2028 -
Bill Singh Bnei Yehuda Aktiv 65 / 62 40% 2 27.04.2028 -
Britton Fischer Albirex Niigata Aktiv 78 / 97 40% 9 24.04.2028 -
Tomás Aguirre Omiya Ardija Aktiv 81 / 82 40% 1 24.04.2028 -
Albert Nurullayev Bukhara Aktiv 79 / 61 40% 4 23.04.2028 -
Wataru Kamijo Sydney FC Aktiv 86 / 82 40% 8 21.04.2028 -
Etonia Dogalau Ba Aktiv 58 / 82 40% 12 16.04.2028 -
Roy Buganim Hapoel Kfar Saba Aktiv 71 / 98 40% 5 15.04.2028 -
Lyle Chatburn Auckland City Aktiv 72 / 82 40% 4 14.04.2028 -
Hokky Caraka Dewa United Aktiv 59 / 61 40% 2 14.04.2028 -
Sali Boubakary Li Central Coast Mariners Aktiv 100 / 89 40% 1 05.04.2028 -
Alex Guaricuyu Kawasaki Frontale Aktiv 89 / 109 40% 1 05.04.2028 -
Óscar Soto Team Wellington Aktiv 84 / 71 40% 1 03.04.2028 -
Kléber Carranza Vegalta Sendai Aktiv 107 / 68 40% 2 01.04.2028 -
Ryan Kalms Melbourne City Aktiv 89 / 89 40% 9 31.03.2028 -
Kosta Nelson WaiBOP United Aktiv 70 / 69 40% 1 31.03.2028 -
Razak Abdullah Sydney FC Aktiv 78 / 82 40% 1 29.03.2028 -
Ibrahim Adel Sydney FC Aktiv 90 / 98 40% 1 29.03.2028 -
Mxolisi Bhengu Kokand 1912 Aktiv 59 / 70 40% 2 26.03.2028 -
Habibi Jusuf Borneo Aktiv 60 / 87 40% 6 25.03.2028 -
Bautista Alonso Omiya Ardija Aktiv 65 / 99 40% 2 22.03.2028 -
Ryan Barbarouses Canterbury United Aktiv 65 / 72 40% 5 22.03.2028 -
Gavin Kwan Adsit Borneo Aktiv 78 / 65 40% 9 20.03.2028 -
Randy Bakari Persebaya Aktiv 73 / 69 40% 3 18.03.2028 -
César Ayón Brisbane Roar Aktiv 89 / 77 40% 1 17.03.2028 -
Lucas Scicluna Perth Glory Aktiv 86 / 92 40% 9 15.03.2028 -
Michael Garbett Hawke's Bay United Aktiv 76 / 63 40% 1 14.03.2028 -
Oliver Dragićević Melbourne Victory Aktiv 90 / 94 40% 3 06.03.2028 -
Lucas Abarca Ba Aktiv 88 / 96 40% 1 01.03.2028 -
Muslimbek Habibullayev Navbahor Aktiv 71 / 79 40% 6 28.02.2028 -
Mirjalol Jumayev Shortan Aktiv 72 / 70 40% 6 28.02.2028 -
Sanzhar Kemelbek Taraz Aktiv 84 / 102 40% 2 24.02.2028 -
Andro Giorgadze Kokand 1912 Aktiv 85 / 109 40% 1 23.02.2028 -
Grigol Chabradze Qizilqum Aktiv 71 / 73 40% 5 22.02.2028 -
Shahzod Turopov Qizilqum Aktiv 95 / 69 40% 4 21.02.2028 -
Ravid Olezki Hapoel Tel Aviv Aktiv 68 / 72 40% 1 18.02.2028 -
Darold Kakasi Ba Aktiv 68 / 44 40% 8 17.02.2028 -
Ibrohim G'anixonov Mashal Aktiv 90 / 85 40% 3 16.02.2028 -
Niv Tubul Hapoel Kfar Saba Aktiv 93 / 81 40% 5 15.02.2028 -
Callan Elliot Auckland FC Aktiv 120 / 98 40% 1 13.02.2028 -
Zach Lisolajski Melbourne City Aktiv 86 / 102 40% 10 12.02.2028 -
Abdulaziz Al-Hadhood Okzhetpes Aktiv 60 / 71 40% 4 10.02.2028 -
Ali Auglah Central Coast Mariners Aktiv 97 / 104 40% 1 10.02.2028 -
Feby Eka Putra Persis Aktiv 78 / 82 40% 1 06.02.2028 -
Daichi Suzuki Sagan Tosu Aktiv 71 / 101 40% 14 05.02.2028 -
Emin Duraković Brisbane Roar Aktiv 101 / 109 40% 1 05.02.2028 -
Oussama Fatmi Lautoka Aktiv 85 / 69 40% 12 02.02.2028 -
Mark Isozaki Omiya Ardija Aktiv 79 / 104 40% 7 02.02.2028 -
Ilham Udin Armayn PSBS Biak Aktiv 73 / 92 40% 9 01.02.2028 -
Alex Nunes Newcastle Jets Aktiv 81 / 97 40% 4 30.01.2028 -
Jefferson Persis Aktiv 93 / 79 40% 4 30.01.2028 -
Harrison Shillington Melbourne Victory Aktiv 81 / 71 40% 5 29.01.2028 -
Yan Shicot Beitar Jerusalem Aktiv 83 / 55 40% 6 27.01.2028 -
Akmal Nematov Obod Aktiv 72 / 92 40% 6 27.01.2028 -
Toshikazu Teruuchi Urawa Reds Aktiv 91 / 107 40% 11 17.01.2028 -
Sandro Embaló PSBS Biak Aktiv 75 / 89 40% 4 13.01.2028 -
Tin Martić Semen Padang Aktiv 97 / 115 40% 1 12.01.2028 -
Oran Shoval Beitar Jerusalem Aktiv 79 / 88 40% 1 09.01.2028 -
Matt Dench Perth Glory Aktiv 107 / 110 40% 8 02.01.2028 -
Ratu Halstead Nadi Aktiv 57 / 41 51% 1 02.01.2028 -
Orlando Thorpe Nasaf Aktiv 71 / 88 40% 1 01.01.2028 -
Tomás Olivarez Newcastle Jets Aktiv 102 / 86 40% 1 30.12.2027 -
Oliver Lavale Sydney FC Aktiv 92 / 98 40% 1 28.12.2027 -
Qobylandy Kamariden Okzhetpes Aktiv 56 / 55 40% 1 25.12.2027 -
Jeremy Foo Auckland City Aktiv 74 / 76 40% 3 23.12.2027 -
Sahar Hershkovich Bnei Yehuda Aktiv 83 / 82 40% 3 20.12.2027 -
Kou Gotou Shakhter Aktiv 94 / 106 40% 6 01.12.2027 -
Sardorbek Saidov Shortan Aktiv 90 / 74 40% 6 15.11.2027 -
Kishan Sami Ba Aktiv 81 / 53 40% 9 11.11.2027 -
Saar Schwartz Hapoel Acre Aktiv 55 / 57 40% 5 04.11.2027 -
Iqboljon Malikjonov Kokand 1912 Aktiv 99 / 99 40% 2 30.10.2027 -
Fabian Talladira Adelaide United Aktiv 95 / 103 40% 11 29.10.2027 -
Ginanjar Wahyu Bhayangkara Presisi Aktiv 58 / 43 40% 2 18.10.2027 -
Yuval Kretzo Maccabi Petach Tikva Aktiv 84 / 109 40% 3 29.09.2027 -
Maicon Silva Semen Padang Aktiv 56 / 63 40% 4 21.09.2027 -
Tim Stamatelopoulos Canterbury United Aktiv 72 / 79 40% 2 19.09.2027 -
Wonderson Yakubu Hapoel Raanana Aktiv 94 / 106 40% 9 02.09.2027 -
Nicolas Riveros Maccabi Petach Tikva Aktiv 90 / 81 40% 2 29.07.2027 -
Sitiveni Rakai Labasa Aktiv 49 / 72 40% 3 25.07.2027 -
Deklan Wood Waitakere United Aktiv 71 / 56 40% 1 15.07.2027 -
Riley Dalziell Auckland FC Aktiv 84 / 102 40% 1 06.07.2027 -
Tevita Waranaivalu Rewa Aktiv 71 / 64 40% 1 12.06.2027 -
Ricky Kambuaya Dewa United Aktiv 102 / 60 40% 1 04.06.2027 -
Turendran Kumar Aktiv 37 / 53 51% 1 01.06.2027 Beobachten
Juni Antara Bhayangkara Presisi Aktiv 79 / 104 40% 2 29.05.2027 -
Manuel Aguilar Melbourne City Aktiv 75 / 90 40% 1 26.05.2027 -
Leonardo Morales Jubilo Iwata Aktiv 71 / 83 40% 1 11.05.2027 -
Josh Damevski Navua Aktiv 70 / 53 40% 1 05.05.2027 -
Harel Goldenberg Hapoel Kiryat Shmona Aktiv 77 / 97 40% 2 04.05.2027 -
Setareki Hughes Rewa Aktiv 61 / 79 40% 2 03.05.2027 -
Diego García Adelaide United Aktiv 68 / 73 40% 1 27.04.2027 -
Keita Fukui Omiya Ardija Aktiv 65 / 60 40% 1 27.04.2027 -
Beni Feldman Maccabi Netanya Aktiv 86 / 67 40% 1 17.04.2027 -
Pablo Martínez Brisbane Roar Aktiv 72 / 61 40% 1 05.04.2027 -
Azamat Erkinbek Taraz Aktiv 69 / 76 40% 1 31.03.2027 -
Mansur Dil'murat Shakhter Aktiv 64 / 55 40% 1 24.03.2027 -
Walter Portillo Wellington Phoenix Aktiv 63 / 69 40% 1 23.03.2027 -
Agustín Orofino Bhayangkara Presisi Aktiv 49 / 89 40% 1 18.03.2027 -
Maximiliano de los Santos Brisbane Roar Aktiv 80 / 85 40% 1 18.03.2027 -
Dylan Argüello Bnei Sakhnin Aktiv 60 / 58 40% 1 06.01.2027 -
Beniamino Swamy Nadroga Aktiv 44 / 66 48% 1 02.01.2027 -
Dostonbek Tursunov Rewa Aktiv 46 / 53 40% 1 01.01.2027 -
Rian Islomov AGMK Aktiv 62 / 63 40% 1 18.08.2026 -
Christopher Wasasala Labasa Aktiv 61 / 58 40% 1 09.08.2026 -
Alper Özdemi̇r Kokand 1912 Aktiv 48 / 85 40% 1 03.08.2026 -
Lucas Mauragis Central Coast Mariners Aktiv 91 / 114 40% 1 01.08.2026 -